Time;durP1;ratioP1;P1;durP2;ratioP2;P2;SDS_P1;SDS_P2;PMS_P1;PMS_P2;Temp;Humidity;BMP_temperature;BMP_pressure;BME280_temperature;BME280_humidity;BME280_pressure;Samples;Min_cycle;Max_cycle;Signal;HPM_P1;HPM_P2
2022/12/26 00:01:09;;;;;;;2.88;2.63;;;;;;;;;;5069753;28;20194;-89
2022/12/26 00:03:37;;;;;;;3.95;2.80;;;;;;;;;;5071117;28;20284;-88
2022/12/26 00:06:11;;;;;;;2.92;2.65;;;;;;;;;;5071478;28;20213;-88
2022/12/26 00:08:39;;;;;;;2.78;2.58;;;;;;;;;;5071652;28;20200;-88
2022/12/26 00:11:06;;;;;;;3.10;2.83;;;;;;;;;;5071820;28;20560;-88
2022/12/26 00:13:34;;;;;;;2.72;2.33;;;;;;;;;;5073873;28;20229;-89
2022/12/26 00:16:07;;;;;;;3.55;2.63;;;;;;;;;;5062319;28;20280;-88
2022/12/26 00:18:35;;;;;;;2.58;2.20;;;;;;;;;;5074885;28;20193;-89
2022/12/26 00:21:04;;;;;;;2.45;2.30;;;;;;;;;;5075274;28;20680;-88
2022/12/26 00:23:32;;;;;;;3.13;2.92;;;;;;;;;;5075257;28;20669;-89
2022/12/26 00:26:04;;;;;;;2.50;2.30;;;;;;;;;;5072322;28;20215;-89
2022/12/26 00:28:31;;;;;;;2.20;2.00;;;;;;;;;;5055431;28;20181;-88
2022/12/26 00:30:59;;;;;;;2.88;2.67;;;;;;;;;;5065796;28;20239;-89
2022/12/26 00:33:26;;;;;;;2.17;2.08;;;;;;;;;;5074860;28;20307;-89
2022/12/26 00:35:54;;;;;;;3.10;2.80;;;;;;;;;;5074799;28;20736;-88
2022/12/26 00:38:23;;;;;;;3.03;2.75;;;;;;;;;;5074908;28;20300;-89
2022/12/26 00:40:51;;;;;;;2.72;2.53;;;;;;;;;;5074514;28;20660;-88
2022/12/26 00:43:18;;;;;;;2.50;2.30;;;;;;;;;;5075043;28;20288;-88
2022/12/26 00:45:47;;;;;;;3.25;2.95;;;;;;;;;;5075017;28;20296;-89
2022/12/26 00:48:15;;;;;;;2.40;2.20;;;;;;;;;;5074920;28;20205;-88
2022/12/26 00:50:43;;;;;;;2.05;1.85;;;;;;;;;;5075029;28;20287;-90
2022/12/26 00:53:10;;;;;;;2.50;2.30;;;;;;;;;;5073258;28;20688;-89
2022/12/26 00:55:40;;;;;;;2.22;2.13;;;;;;;;;;5074468;28;20303;-89
2022/12/26 00:58:07;;;;;;;2.42;2.22;;;;;;;;;;5074721;28;20285;-89
2022/12/26 01:00:35;;;;;;;2.25;2.05;;;;;;;;;;5074445;28;20637;-89
2022/12/26 01:03:03;;;;;;;2.17;1.75;;;;;;;;;;5074328;28;20212;-88
2022/12/26 01:05:31;;;;;;;1.70;1.60;;;;;;;;;;5074076;28;20646;-88
2022/12/26 01:07:58;;;;;;;2.60;2.40;;;;;;;;;;5073818;28;20203;-89
2022/12/26 01:10:26;;;;;;;1.90;1.80;;;;;;;;;;5073876;28;20379;-88
2022/12/26 01:12:55;;;;;;;2.65;1.70;;;;;;;;;;5066981;28;20238;-89
2022/12/26 01:15:23;;;;;;;2.28;2.08;;;;;;;;;;5074214;28;20719;-88
2022/12/26 01:17:50;;;;;;;2.80;2.38;;;;;;;;;;5074120;28;20197;-88
2022/12/26 01:20:18;;;;;;;2.42;2.22;;;;;;;;;;5073645;28;20288;-88
2022/12/26 01:22:45;;;;;;;1.83;1.73;;;;;;;;;;5065817;28;20199;-89
2022/12/26 01:25:13;;;;;;;2.15;1.95;;;;;;;;;;5073719;28;20209;-89
2022/12/26 01:27:40;;;;;;;2.63;2.42;;;;;;;;;;5074123;28;20193;-88
2022/12/26 01:30:11;;;;;;;2.28;1.80;;;;;;;;;;5074105;28;20288;-89
2022/12/26 01:32:39;;;;;;;1.92;1.67;;;;;;;;;;5074087;28;20224;-89
2022/12/26 01:35:07;;;;;;;2.70;2.03;;;;;;;;;;5073624;28;20680;-89
2022/12/26 01:37:35;;;;;;;1.80;1.70;;;;;;;;;;5074087;28;20291;-88
2022/12/26 01:40:02;;;;;;;2.13;1.92;;;;;;;;;;5073620;28;20721;-89
2022/12/26 01:42:37;;;;;;;1.88;1.77;;;;;;;;;;5074091;28;20642;-89
2022/12/26 01:45:17;;;;;;;1.92;1.83;;;;;;;;;;5073877;28;20288;-87
2022/12/26 01:47:49;;;;;;;1.80;1.70;;;;;;;;;;5073707;28;20185;-88
2022/12/26 01:50:30;;;;;;;2.97;1.88;;;;;;;;;;5073779;28;20277;-89
2022/12/26 01:53:00;;;;;;;2.15;2.00;;;;;;;;;;5073258;28;20221;-89
2022/12/26 01:55:29;;;;;;;1.60;1.50;;;;;;;;;;5073479;28;20221;-89
2022/12/26 01:57:58;;;;;;;1.88;1.77;;;;;;;;;;5072293;28;20212;-88
2022/12/26 02:00:27;;;;;;;1.65;1.55;;;;;;;;;;5073384;28;20201;-89
2022/12/26 02:05:40;;;;;;;1.85;1.70;;;;;;;;;;5067401;28;20228;-89
2022/12/26 02:08:14;;;;;;;2.63;2.15;;;;;;;;;;5072418;28;20278;-88
2022/12/26 02:10:48;;;;;;;1.80;1.70;;;;;;;;;;5072509;28;20284;-89
2022/12/26 02:13:17;;;;;;;1.80;1.70;;;;;;;;;;5072047;28;20216;-89
2022/12/26 02:15:46;;;;;;;2.17;2.00;;;;;;;;;;5066069;28;20236;-89
2022/12/26 02:18:14;;;;;;;2.03;1.92;;;;;;;;;;5072712;28;20201;-88
2022/12/26 02:20:47;;;;;;;2.05;1.85;;;;;;;;;;5072737;28;20579;-89
2022/12/26 02:23:57;;;;;;;1.98;1.65;;;;;;;;;;5053145;28;20627;-89
2022/12/26 02:27:03;;;;;;;1.40;1.30;;;;;;;;;;5052868;28;20229;-88
2022/12/26 02:30:22;;;;;;;1.30;1.20;;;;;;;;;;5053114;28;20190;-89
2022/12/26 02:33:21;;;;;;;1.45;1.35;;;;;;;;;;5052568;28;20670;-88
2022/12/26 02:36:17;;;;;;;1.30;1.25;;;;;;;;;;5052586;28;20623;-88
2022/12/26 02:38:52;;;;;;;1.15;1.10;;;;;;;;;;5070342;28;20284;-89
2022/12/26 02:41:29;;;;;;;1.40;1.30;;;;;;;;;;5072685;28;20199;-88
2022/12/26 02:47:01;;;;;;;1.40;1.30;;;;;;;;;;5073033;28;20287;-88
2022/12/26 02:47:06;;;;;;;1.98;1.60;;;;;;;;;;5072230;28;20602;-88
2022/12/26 03:15:21;;;;;;;1.83;1.67;;;;;;;;;;5063617;28;20231;-88
2022/12/26 03:17:50;;;;;;;1.67;1.58;;;;;;;;;;5071952;28;20201;-88
2022/12/26 03:20:23;;;;;;;1.67;1.58;;;;;;;;;;5072019;28;20672;-88
2022/12/26 03:22:55;;;;;;;1.42;1.33;;;;;;;;;;5071928;28;20280;-88
2022/12/26 03:28:13;;;;;;;2.15;1.67;;;;;;;;;;5038245;28;20703;-89
2022/12/26 03:30:49;;;;;;;1.80;1.70;;;;;;;;;;5071918;28;20201;-89
2022/12/26 03:36:03;;;;;;;1.83;1.65;;;;;;;;;;5071789;28;20303;-89
2022/12/26 03:38:38;;;;;;;1.50;1.40;;;;;;;;;;5072146;28;20575;-89
2022/12/26 04:44:09;;;;;;;1.50;1.40;;;;;;;;;;5075025;28;20184;-89
2022/12/26 04:46:40;;;;;;;1.60;1.50;;;;;;;;;;5075106;28;20247;-90
2022/12/26 04:51:56;;;;;;;1.95;1.42;;;;;;;;;;5068887;28;20200;-89
2022/12/26 04:54:24;;;;;;;2.47;1.88;;;;;;;;;;5074345;28;20223;-89
2022/12/26 04:56:51;;;;;;;1.70;1.60;;;;;;;;;;5074223;28;20213;-90
2022/12/26 04:59:21;;;;;;;1.63;1.52;;;;;;;;;;5068246;28;20563;-89
2022/12/26 05:10:10;;;;;;;1.48;1.38;;;;;;;;;;5067712;28;20195;-89
2022/12/26 05:12:37;;;;;;;1.38;1.27;;;;;;;;;;5063637;28;20208;-89
2022/12/26 05:15:08;;;;;;;3.28;1.92;;;;;;;;;;5069272;28;20225;-89
2022/12/26 05:28:55;;;;;;;1.10;1.10;;;;;;;;;;5067020;28;20205;-88
2022/12/26 05:31:24;;;;;;;1.63;1.45;;;;;;;;;;5064570;28;20277;-89
2022/12/26 05:34:06;;;;;;;1.25;1.20;;;;;;;;;;5053986;28;20293;-88
2022/12/26 05:36:39;;;;;;;1.50;1.40;;;;;;;;;;5069864;28;20223;-89
2022/12/26 05:39:07;;;;;;;1.90;1.20;;;;;;;;;;5063824;28;20205;-89
2022/12/26 05:41:35;;;;;;;1.52;1.42;;;;;;;;;;5064058;28;20623;-87
2022/12/26 05:44:03;;;;;;;1.13;1.13;;;;;;;;;;5068673;28;20228;-87
2022/12/26 05:46:32;;;;;;;1.30;1.20;;;;;;;;;;5059372;28;20305;-87
2022/12/26 05:48:59;;;;;;;1.48;1.38;;;;;;;;;;5070209;28;20193;-87
2022/12/26 05:52:26;;;;;;;1.80;1.60;;;;;;;;;;5073669;28;20300;-87
2022/12/26 05:54:53;;;;;;;1.67;1.50;;;;;;;;;;5054798;28;20600;-87
2022/12/26 05:57:21;;;;;;;1.92;1.70;;;;;;;;;;5072816;28;20329;-87
2022/12/26 05:59:48;;;;;;;2.08;1.70;;;;;;;;;;5071749;28;20567;-87
2022/12/26 06:02:17;;;;;;;1.88;1.48;;;;;;;;;;5062979;28;20237;-87
2022/12/26 06:04:45;;;;;;;1.65;1.55;;;;;;;;;;5066826;28;20201;-87
2022/12/26 06:07:12;;;;;;;1.35;0.90;;;;;;;;;;5063037;28;20213;-87
2022/12/26 06:09:40;;;;;;;1.80;1.35;;;;;;;;;;5065859;28;20300;-87
2022/12/26 06:12:07;;;;;;;1.40;1.30;;;;;;;;;;5072275;28;20205;-86
2022/12/26 06:14:35;;;;;;;1.65;1.55;;;;;;;;;;5066809;28;21702;-88
2022/12/26 06:17:03;;;;;;;1.30;1.20;;;;;;;;;;5074588;28;20639;-87
2022/12/26 06:19:32;;;;;;;1.58;1.48;;;;;;;;;;5072776;28;20220;-87
2022/12/26 06:21:59;;;;;;;1.58;1.30;;;;;;;;;;5069696;28;20235;-87
2022/12/26 06:24:27;;;;;;;1.20;1.10;;;;;;;;;;5058579;28;20201;-87
2022/12/26 06:26:54;;;;;;;1.80;1.52;;;;;;;;;;5072192;28;20303;-87
2022/12/26 06:29:22;;;;;;;1.38;1.27;;;;;;;;;;5071966;28;20288;-89
2022/12/26 06:31:50;;;;;;;1.02;1.02;;;;;;;;;;5060035;28;20193;-87
2022/12/26 06:34:18;;;;;;;1.40;1.30;;;;;;;;;;5071466;28;20304;-87
2022/12/26 06:36:47;;;;;;;1.30;1.17;;;;;;;;;;5072247;28;20248;-87
2022/12/26 06:39:14;;;;;;;1.20;1.10;;;;;;;;;;5072105;28;20280;-87
2022/12/26 06:41:42;;;;;;;0.90;0.90;;;;;;;;;;5072686;28;20197;-86
2022/12/26 06:44:10;;;;;;;1.95;1.75;;;;;;;;;;5072096;28;20197;-87
2022/12/26 06:46:37;;;;;;;1.52;1.38;;;;;;;;;;5062090;28;20788;-87
2022/12/26 06:49:16;;;;;;;1.13;1.02;;;;;;;;;;5069042;28;20196;-87
2022/12/26 06:51:44;;;;;;;1.20;1.20;;;;;;;;;;5067202;28;20200;-86
2022/12/26 06:54:13;;;;;;;1.35;1.05;;;;;;;;;;5069387;28;20214;-87
2022/12/26 06:56:41;;;;;;;1.40;1.30;;;;;;;;;;5065215;28;20217;-86
2022/12/26 06:59:10;;;;;;;1.38;0.90;;;;;;;;;;5067667;28;20297;-87
2022/12/26 07:01:37;;;;;;;1.13;1.00;;;;;;;;;;5057573;28;20331;-86
2022/12/26 07:04:05;;;;;;;1.30;1.10;;;;;;;;;;5068278;28;20279;-88
2022/12/26 07:06:34;;;;;;;1.13;1.02;;;;;;;;;;5070914;28;20217;-87
2022/12/26 07:09:04;;;;;;;1.02;1.00;;;;;;;;;;5060169;28;20197;-86
2022/12/26 07:11:37;;;;;;;1.30;1.17;;;;;;;;;;5068432;28;20200;-88
2022/12/26 07:14:05;;;;;;;1.52;1.42;;;;;;;;;;5064797;28;20200;-87
2022/12/26 07:16:35;;;;;;;1.13;1.02;;;;;;;;;;5071450;28;20239;-87
2022/12/26 07:19:03;;;;;;;1.23;1.17;;;;;;;;;;5063725;28;20687;-87
2022/12/26 07:21:30;;;;;;;0.80;0.80;;;;;;;;;;5073341;28;20200;-87
2022/12/26 07:23:58;;;;;;;1.50;1.38;;;;;;;;;;5076137;28;20280;-87
2022/12/26 07:26:26;;;;;;;1.70;1.20;;;;;;;;;;5076322;28;20591;-88
2022/12/26 07:28:56;;;;;;;2.03;1.23;;;;;;;;;;5066244;28;20283;-88
2022/12/26 07:31:25;;;;;;;1.00;0.90;;;;;;;;;;5070973;28;20671;-87
2022/12/26 07:33:55;;;;;;;1.98;1.10;;;;;;;;;;5076001;28;20197;-88
2022/12/26 07:36:23;;;;;;;1.40;1.30;;;;;;;;;;5072945;28;20221;-88
2022/12/26 07:38:51;;;;;;;1.00;0.80;;;;;;;;;;5073528;28;20200;-87
2022/12/26 07:45:01;;;;;;;0.90;0.90;;;;;;;;;;5073575;28;20204;-87
2022/12/26 07:47:31;;;;;;;0.90;0.90;;;;;;;;;;5075768;28;20300;-87
2022/12/26 07:50:00;;;;;;;0.68;0.68;;;;;;;;;;5060991;28;20197;-87
2022/12/26 07:52:28;;;;;;;1.08;0.90;;;;;;;;;;5075393;28;20213;-86
2022/12/26 07:54:55;;;;;;;0.93;0.70;;;;;;;;;;5076288;28;20216;-86
2022/12/26 07:57:23;;;;;;;0.70;0.70;;;;;;;;;;5073750;28;20280;-86
2022/12/26 07:59:51;;;;;;;1.23;1.08;;;;;;;;;;5075410;28;20217;-86
2022/12/26 08:02:18;;;;;;;0.70;0.70;;;;;;;;;;5074851;28;20673;-87
2022/12/26 08:04:47;;;;;;;0.63;0.63;;;;;;;;;;5075277;28;20736;-86
2022/12/26 08:07:14;;;;;;;1.08;0.70;;;;;;;;;;5075537;28;20625;-87
2022/12/26 08:09:43;;;;;;;2.55;1.35;;;;;;;;;;5075479;28;20829;-86
2022/12/26 08:12:11;;;;;;;0.73;0.73;;;;;;;;;;5075597;28;20578;-86
2022/12/26 08:14:39;;;;;;;0.80;0.80;;;;;;;;;;5074664;28;20220;-87
2022/12/26 08:18:02;;;;;;;0.93;0.80;;;;;;;;;;5072469;28;20224;-87
2022/12/26 08:20:31;;;;;;;0.50;0.50;;;;;;;;;;5073987;28;20194;-86
2022/12/26 08:22:58;;;;;;;0.88;0.60;;;;;;;;;;5075250;28;20209;-86
2022/12/26 08:25:26;;;;;;;0.50;0.50;;;;;;;;;;5075499;28;20290;-87
2022/12/26 08:27:54;;;;;;;0.70;0.70;;;;;;;;;;5069448;28;20197;-87
2022/12/26 08:30:21;;;;;;;0.50;0.50;;;;;;;;;;5075214;28;20201;-86
2022/12/26 08:32:49;;;;;;;0.70;0.70;;;;;;;;;;5074283;28;20297;-88
2022/12/26 08:35:17;;;;;;;0.63;0.63;;;;;;;;;;5075132;28;20225;-87
2022/12/26 08:37:47;;;;;;;0.68;0.68;;;;;;;;;;5074731;28;20707;-88
2022/12/26 08:40:15;;;;;;;0.50;0.50;;;;;;;;;;5075118;28;20193;-90
2022/12/26 08:42:43;;;;;;;0.63;0.50;;;;;;;;;;5074733;28;20720;-89
2022/12/26 08:45:10;;;;;;;1.63;0.52;;;;;;;;;;5075035;28;20288;-89
2022/12/26 08:47:38;;;;;;;0.52;0.52;;;;;;;;;;5075117;28;20572;-90
2022/12/26 08:50:06;;;;;;;1.08;0.98;;;;;;;;;;5074461;28;20193;-89
2022/12/26 08:52:35;;;;;;;0.50;0.50;;;;;;;;;;5074417;28;20576;-89
2022/12/26 08:55:05;;;;;;;0.38;0.38;;;;;;;;;;5074659;28;20615;-90
2022/12/26 08:57:33;;;;;;;0.47;0.40;;;;;;;;;;5074463;28;20311;-90
2022/12/26 09:00:00;;;;;;;0.60;0.60;;;;;;;;;;5075127;28;20257;-87
2022/12/26 09:02:28;;;;;;;0.90;0.90;;;;;;;;;;5074555;28;20280;-88
2022/12/26 09:04:55;;;;;;;1.05;0.73;;;;;;;;;;5074546;28;20271;-87
2022/12/26 09:07:35;;;;;;;0.60;0.60;;;;;;;;;;5074693;28;20217;-87
2022/12/26 09:10:05;;;;;;;0.40;0.40;;;;;;;;;;5074418;28;20207;-87
2022/12/26 09:12:32;;;;;;;0.38;0.38;;;;;;;;;;5074984;28;20224;-87
2022/12/26 09:15:00;;;;;;;0.50;0.50;;;;;;;;;;5073520;28;20741;-86
2022/12/26 09:17:27;;;;;;;0.85;0.75;;;;;;;;;;5074338;28;20325;-87
2022/12/26 09:19:55;;;;;;;0.52;0.52;;;;;;;;;;5073707;28;20383;-86
2022/12/26 09:25:09;;;;;;;0.32;0.32;;;;;;;;;;5071483;28;20246;-88
2022/12/26 09:27:37;;;;;;;0.50;0.50;;;;;;;;;;5073617;28;20201;-88
2022/12/26 09:30:06;;;;;;;0.40;0.40;;;;;;;;;;5073663;28;20289;-86
2022/12/26 09:32:34;;;;;;;0.30;0.30;;;;;;;;;;5074047;28;20665;-86
2022/12/26 09:35:02;;;;;;;0.70;0.70;;;;;;;;;;5072967;28;20287;-86
2022/12/26 09:37:30;;;;;;;0.50;0.50;;;;;;;;;;5072899;28;20667;-86
2022/12/26 09:39:57;;;;;;;0.40;0.40;;;;;;;;;;5072392;28;20201;-87
2022/12/26 09:42:34;;;;;;;0.40;0.40;;;;;;;;;;5072523;28;20258;-86
2022/12/26 09:45:09;;;;;;;0.20;0.20;;;;;;;;;;5060832;28;20282;-86
2022/12/26 09:47:40;;;;;;;0.30;0.30;;;;;;;;;;5053424;28;20236;-87
2022/12/26 09:50:15;;;;;;;0.35;0.35;;;;;;;;;;5067231;28;20769;-85
2022/12/26 09:52:48;;;;;;;0.40;0.40;;;;;;;;;;5070360;28;20287;-87
2022/12/26 09:55:30;;;;;;;0.30;0.30;;;;;;;;;;5073269;28;20657;-87
2022/12/26 09:58:04;;;;;;;0.30;0.30;;;;;;;;;;5069344;28;20213;-87
2022/12/26 10:00:37;;;;;;;0.38;0.38;;;;;;;;;;5070046;28;20634;-87
2022/12/26 10:03:06;;;;;;;0.30;0.30;;;;;;;;;;5073268;28;20197;-87
2022/12/26 10:05:40;;;;;;;0.50;0.50;;;;;;;;;;5072067;28;20770;-86
2022/12/26 10:08:27;;;;;;;0.47;0.47;;;;;;;;;;5062760;28;20211;-86
2022/12/26 10:11:00;;;;;;;0.65;0.65;;;;;;;;;;5070670;28;20211;-86
2022/12/26 10:13:39;;;;;;;0.50;0.50;;;;;;;;;;5066332;28;20233;-87
2022/12/26 10:16:11;;;;;;;0.45;0.45;;;;;;;;;;5065314;28;20227;-85
2022/12/26 10:18:56;;;;;;;0.60;0.60;;;;;;;;;;5057920;28;20312;-87
2022/12/26 10:21:35;;;;;;;0.60;0.45;;;;;;;;;;5068271;28;20293;-88
2022/12/26 10:24:12;;;;;;;0.47;0.47;;;;;;;;;;5054367;28;20201;-86
2022/12/26 10:26:43;;;;;;;2.65;0.40;;;;;;;;;;5070580;28;20867;-86
2022/12/26 10:29:20;;;;;;;0.38;0.38;;;;;;;;;;5069504;28;20212;-88
2022/12/26 10:31:52;;;;;;;0.55;0.50;;;;;;;;;;5062792;28;20280;-89
2022/12/26 10:34:23;;;;;;;0.40;0.40;;;;;;;;;;5072045;28;20633;-87
2022/12/26 10:36:53;;;;;;;0.60;0.60;;;;;;;;;;5072764;28;20655;-86
2022/12/26 10:39:25;;;;;;;0.55;0.55;;;;;;;;;;5071417;28;20280;-86
2022/12/26 10:41:55;;;;;;;0.50;0.50;;;;;;;;;;5072707;28;20583;-88
2022/12/26 10:44:24;;;;;;;0.40;0.40;;;;;;;;;;5071745;28;20736;-87
2022/12/26 10:47:16;;;;;;;0.30;0.30;;;;;;;;;;5073364;28;20308;-87
2022/12/26 10:49:46;;;;;;;0.47;0.47;;;;;;;;;;5071975;28;20217;-87
2022/12/26 10:52:15;;;;;;;0.30;0.30;;;;;;;;;;5060449;28;20284;-88
2022/12/26 10:54:43;;;;;;;0.40;0.40;;;;;;;;;;5074635;28;20223;-89
2022/12/26 10:57:10;;;;;;;0.30;0.30;;;;;;;;;;5068702;28;20628;-88
2022/12/26 10:59:54;;;;;;;0.35;0.35;;;;;;;;;;5071064;28;20267;-90
2022/12/26 11:02:28;;;;;;;0.20;0.20;;;;;;;;;;5067789;28;20209;-88
2022/12/26 11:05:04;;;;;;;0.50;0.50;;;;;;;;;;5078731;28;20204;-89
2022/12/26 11:07:37;;;;;;;0.40;0.40;;;;;;;;;;5076181;28;20201;-90
2022/12/26 11:10:14;;;;;;;0.50;0.50;;;;;;;;;;5064666;28;20564;-90
2022/12/26 11:12:49;;;;;;;0.40;0.40;;;;;;;;;;5072218;28;20291;-90
2022/12/26 11:15:29;;;;;;;0.47;0.47;;;;;;;;;;5072295;28;20680;-88
2022/12/26 11:18:14;;;;;;;0.30;0.30;;;;;;;;;;5071247;28;20577;-88
2022/12/26 11:20:49;;;;;;;0.50;0.50;;;;;;;;;;5070459;28;20233;-89
2022/12/26 11:23:29;;;;;;;0.50;0.50;;;;;;;;;;5069094;28;20230;-86
2022/12/26 11:25:58;;;;;;;0.88;0.75;;;;;;;;;;5071566;28;20311;-88
2022/12/26 11:28:37;;;;;;;0.68;0.68;;;;;;;;;;5070253;28;20227;-88
2022/12/26 11:31:08;;;;;;;0.70;0.70;;;;;;;;;;5071905;28;20200;-88
2022/12/26 11:33:43;;;;;;;0.90;0.90;;;;;;;;;;5074404;28;20197;-89
2022/12/26 11:36:21;;;;;;;0.82;0.82;;;;;;;;;;5064855;28;20278;-87
2022/12/26 11:38:52;;;;;;;0.63;0.63;;;;;;;;;;5067663;28;20262;-89
2022/12/26 11:41:47;;;;;;;0.60;0.60;;;;;;;;;;5072506;28;20205;-87
2022/12/26 11:44:28;;;;;;;1.25;1.10;;;;;;;;;;5071643;28;20233;-89
2022/12/26 11:47:14;;;;;;;0.68;0.68;;;;;;;;;;5071759;28;20738;-89
2022/12/26 11:50:09;;;;;;;0.73;0.73;;;;;;;;;;5071767;28;20212;-90
2022/12/26 12:16:22;;;;;;;0.55;0.52;;;;;;;;;;5084366;28;20282;-87
2022/12/26 12:18:53;;;;;;;0.45;0.45;;;;;;;;;;5067615;28;20758;-86
2022/12/26 12:25:36;;;;;;;0.70;0.70;;;;;;;;;;5064771;28;20201;-87
2022/12/26 12:28:57;;;;;;;1.10;0.70;;;;;;;;;;5063140;28;20197;-86
2022/12/26 12:31:36;;;;;;;0.60;0.60;;;;;;;;;;4940869;28;20204;-85
2022/12/26 12:34:13;;;;;;;0.88;0.88;;;;;;;;;;5063173;28;20638;-85
2022/12/26 12:36:57;;;;;;;0.60;0.60;;;;;;;;;;5074298;28;20312;-86
2022/12/26 12:39:52;;;;;;;1.02;0.77;;;;;;;;;;5085377;28;20749;-86
2022/12/26 12:42:35;;;;;;;0.80;0.80;;;;;;;;;;5076612;28;20197;-85
2022/12/26 12:45:25;;;;;;;1.20;1.10;;;;;;;;;;5076182;28;20201;-87
2022/12/26 12:48:26;;;;;;;0.93;0.90;;;;;;;;;;5074012;28;20304;-87
2022/12/26 12:51:02;;;;;;;1.10;0.93;;;;;;;;;;5074107;28;20661;-86
2022/12/26 12:54:00;;;;;;;1.42;1.00;;;;;;;;;;5066371;28;20287;-88
2022/12/26 12:57:01;;;;;;;0.95;0.95;;;;;;;;;;5073998;28;20278;-87
2022/12/26 13:00:53;;;;;;;0.98;0.98;;;;;;;;;;5070177;28;20223;-90
2022/12/26 13:04:00;;;;;;;1.45;1.17;;;;;;;;;;5069694;28;20211;-89
2022/12/26 13:06:49;;;;;;;0.77;0.77;;;;;;;;;;5074189;28;20685;-87
2022/12/26 13:13:33;;;;;;;0.88;0.88;;;;;;;;;;5056298;28;20265;-89
2022/12/26 13:20:29;;;;;;;0.90;0.90;;;;;;;;;;4937346;29;20301;-89
2022/12/26 15:33:48;;;;;;;0.52;0.52;;;;;;;;;;648788;22;20512;-86
2022/12/26 15:36:22;;;;;;;0.73;0.73;;;;;;;;;;5071773;28;20215;-87
2022/12/26 15:38:55;;;;;;;0.85;0.85;;;;;;;;;;5077286;28;20220;-88
2022/12/26 15:41:34;;;;;;;1.10;0.93;;;;;;;;;;5072405;28;20236;-88
2022/12/26 15:44:19;;;;;;;0.85;0.40;;;;;;;;;;5076096;28;20303;-87
2022/12/26 15:46:54;;;;;;;0.82;0.82;;;;;;;;;;5074991;28;20637;-88
2022/12/26 15:49:41;;;;;;;0.60;0.60;;;;;;;;;;5071283;28;20239;-88
2022/12/26 15:52:16;;;;;;;0.40;0.40;;;;;;;;;;5065457;28;20208;-87
2022/12/26 15:55:16;;;;;;;0.45;0.45;;;;;;;;;;5077174;28;20307;-88
2022/12/26 15:57:54;;;;;;;0.70;0.70;;;;;;;;;;5075900;28;20288;-88
2022/12/26 16:00:23;;;;;;;2.35;0.60;;;;;;;;;;5075603;28;20245;-88
2022/12/26 16:03:18;;;;;;;0.43;0.43;;;;;;;;;;5062396;28;20271;-88
2022/12/26 16:05:58;;;;;;;0.43;0.43;;;;;;;;;;5070303;28;20633;-88
2022/12/26 16:09:06;;;;;;;1.90;0.75;;;;;;;;;;5075171;28;20236;-89
2022/12/26 16:11:49;;;;;;;0.60;0.60;;;;;;;;;;5082493;28;20279;-88
2022/12/26 16:14:29;;;;;;;1.08;1.08;;;;;;;;;;5074560;28;20217;-87
2022/12/26 16:17:16;;;;;;;1.00;1.00;;;;;;;;;;5076266;28;20265;-87
2022/12/26 16:19:46;;;;;;;1.40;1.40;;;;;;;;;;5065492;28;20292;-87
2022/12/26 16:22:42;;;;;;;2.72;1.40;;;;;;;;;;5078056;28;20618;-87
2022/12/26 16:25:12;;;;;;;1.50;1.40;;;;;;;;;;5077439;28;20759;-88
2022/12/26 16:27:40;;;;;;;2.47;2.05;;;;;;;;;;5077639;28;20208;-88
2022/12/26 16:30:14;;;;;;;1.88;1.77;;;;;;;;;;5068105;28;20280;-87
2022/12/26 16:32:47;;;;;;;1.80;1.70;;;;;;;;;;5073561;28;20188;-87
2022/12/26 16:35:24;;;;;;;2.50;2.30;;;;;;;;;;5065903;28;20205;-87
2022/12/26 16:38:02;;;;;;;2.00;1.90;;;;;;;;;;5076767;28;20250;-88
2022/12/26 16:40:31;;;;;;;4.65;2.38;;;;;;;;;;5068702;28;20231;-87
2022/12/26 16:43:05;;;;;;;2.40;2.20;;;;;;;;;;5070146;28;20308;-88
2022/12/26 16:45:35;;;;;;;2.40;2.20;;;;;;;;;;5074468;28;20231;-88
2022/12/26 16:48:06;;;;;;;3.55;2.80;;;;;;;;;;5069882;28;20705;-88
2022/12/26 16:50:36;;;;;;;4.10;2.20;;;;;;;;;;5077468;28;20196;-87
2022/12/26 16:53:13;;;;;;;2.42;2.22;;;;;;;;;;5077172;28;20208;-88
2022/12/26 16:55:45;;;;;;;3.05;2.75;;;;;;;;;;5079108;28;20744;-87
2022/12/26 16:58:23;;;;;;;2.00;1.90;;;;;;;;;;5079514;28;20288;-87
2022/12/26 17:01:08;;;;;;;3.08;2.30;;;;;;;;;;5078555;28;20685;-87
2022/12/26 17:03:43;;;;;;;2.83;2.63;;;;;;;;;;5073380;28;20236;-88
2022/12/26 17:06:16;;;;;;;2.10;1.95;;;;;;;;;;5076859;28;20187;-87
2022/12/26 17:08:48;;;;;;;2.75;2.55;;;;;;;;;;5077919;28;20227;-88
2022/12/26 17:11:16;;;;;;;2.60;2.40;;;;;;;;;;5077310;28;20221;-87
2022/12/26 17:13:51;;;;;;;2.08;1.98;;;;;;;;;;5077834;28;20220;-86
2022/12/26 17:16:21;;;;;;;3.58;3.28;;;;;;;;;;5078651;28;20228;-87
2022/12/26 17:18:51;;;;;;;3.30;3.00;;;;;;;;;;5078435;28;20197;-85
2022/12/26 17:21:23;;;;;;;4.22;2.60;;;;;;;;;;5076529;28;20216;-86
2022/12/26 17:24:14;;;;;;;3.42;3.08;;;;;;;;;;5077471;28;20304;-85
2022/12/26 17:26:43;;;;;;;4.22;3.78;;;;;;;;;;5077543;28;20205;-85
2022/12/26 17:29:53;;;;;;;8.88;3.90;;;;;;;;;;5077255;28;20657;-84
2022/12/26 17:32:32;;;;;;;4.30;3.80;;;;;;;;;;5054314;28;20240;-84
2022/12/26 17:35:06;;;;;;;3.65;3.28;;;;;;;;;;5077558;28;20636;-85
2022/12/26 17:37:34;;;;;;;3.65;3.35;;;;;;;;;;5076839;28;20193;-85
2022/12/26 17:40:22;;;;;;;5.60;5.10;;;;;;;;;;5076755;28;20647;-86
2022/12/26 17:42:52;;;;;;;4.32;3.90;;;;;;;;;;5076550;28;20280;-85
2022/12/26 17:45:24;;;;;;;4.65;4.13;;;;;;;;;;5075909;28;20294;-83
2022/12/26 17:47:52;;;;;;;7.15;4.60;;;;;;;;;;5075600;28;20205;-85
2022/12/26 17:50:20;;;;;;;4.72;4.05;;;;;;;;;;5076420;28;20288;-85
2022/12/26 17:52:47;;;;;;;5.57;4.47;;;;;;;;;;5066227;28;20289;-84
2022/12/26 17:55:23;;;;;;;5.53;4.90;;;;;;;;;;5066288;28;20650;-86
2022/12/26 17:57:51;;;;;;;4.05;3.70;;;;;;;;;;5062216;28;20204;-85
2022/12/26 18:00:22;;;;;;;4.65;4.15;;;;;;;;;;5067052;28;20228;-86
2022/12/26 18:02:49;;;;;;;7.13;4.72;;;;;;;;;;5076128;28;20283;-87
2022/12/26 18:05:17;;;;;;;3.33;3.03;;;;;;;;;;5076005;28;20236;-86
2022/12/26 18:07:46;;;;;;;3.13;2.83;;;;;;;;;;5076718;28;20276;-86
2022/12/26 18:10:21;;;;;;;3.58;3.20;;;;;;;;;;5076745;28;20203;-84
2022/12/26 18:12:49;;;;;;;7.75;5.57;;;;;;;;;;5075740;28;20243;-86
2022/12/26 18:15:17;;;;;;;12.00;4.47;;;;;;;;;;5075872;28;20289;-86
2022/12/26 18:17:45;;;;;;;2.80;2.58;;;;;;;;;;5075326;28;20221;-86
2022/12/26 18:20:17;;;;;;;3.17;2.95;;;;;;;;;;5075622;28;20243;-87
2022/12/26 18:22:46;;;;;;;4.97;3.42;;;;;;;;;;5069140;28;20201;-86
2022/12/26 18:25:15;;;;;;;3.35;3.05;;;;;;;;;;5076855;28;20711;-84
2022/12/26 18:27:44;;;;;;;3.28;2.92;;;;;;;;;;5076872;28;20221;-85
2022/12/26 18:30:17;;;;;;;4.22;3.13;;;;;;;;;;5075707;28;20283;-86
2022/12/26 18:32:45;;;;;;;3.47;3.10;;;;;;;;;;5073976;28;20197;-86
2022/12/26 18:35:13;;;;;;;3.47;2.80;;;;;;;;;;5075698;28;20236;-85
2022/12/26 18:37:43;;;;;;;4.88;3.13;;;;;;;;;;5072784;28;20200;-86
2022/12/26 18:40:27;;;;;;;3.25;2.92;;;;;;;;;;5075101;28;20227;-86
2022/12/26 18:42:56;;;;;;;2.80;2.58;;;;;;;;;;5074184;28;20228;-84
2022/12/26 18:45:24;;;;;;;2.53;2.33;;;;;;;;;;5075011;28;20232;-86
2022/12/26 18:47:52;;;;;;;4.38;2.85;;;;;;;;;;5075236;28;20216;-86
2022/12/26 18:50:19;;;;;;;13.38;6.25;;;;;;;;;;5075706;28;20313;-86
2022/12/26 18:52:47;;;;;;;3.47;2.70;;;;;;;;;;5074377;28;20221;-85
2022/12/26 18:55:14;;;;;;;5.63;3.17;;;;;;;;;;5073780;28;20274;-84
2022/12/26 18:57:42;;;;;;;3.10;2.80;;;;;;;;;;5074909;28;20638;-85
2022/12/26 19:00:15;;;;;;;4.85;3.10;;;;;;;;;;5074186;28;20224;-84
2022/12/26 19:02:42;;;;;;;3.60;3.33;;;;;;;;;;5074024;28;20303;-85
2022/12/26 19:05:21;;;;;;;4.20;3.80;;;;;;;;;;5075314;28;20288;-86
2022/12/26 19:07:49;;;;;;;5.78;3.65;;;;;;;;;;5074443;28;20197;-85
2022/12/26 19:10:20;;;;;;;6.03;4.25;;;;;;;;;;5074110;28;20200;-85
2022/12/26 19:12:48;;;;;;;5.82;3.60;;;;;;;;;;5074494;28;20564;-84
2022/12/26 19:15:19;;;;;;;5.60;5.05;;;;;;;;;;5074023;28;20200;-83
2022/12/26 19:17:46;;;;;;;6.30;4.22;;;;;;;;;;5073724;28;20556;-85
2022/12/26 19:20:19;;;;;;;5.20;3.67;;;;;;;;;;5074322;28;20197;-84
2022/12/26 19:22:48;;;;;;;11.70;4.85;;;;;;;;;;5074477;28;20243;-86
2022/12/26 19:25:16;;;;;;;3.50;3.20;;;;;;;;;;5073642;28;20193;-86
2022/12/26 19:27:44;;;;;;;3.72;3.42;;;;;;;;;;5074203;28;20184;-87
2022/12/26 19:30:13;;;;;;;3.33;2.97;;;;;;;;;;5074503;28;20203;-86
2022/12/26 19:32:42;;;;;;;5.88;3.45;;;;;;;;;;5074613;28;20193;-83
2022/12/26 19:35:10;;;;;;;3.22;2.90;;;;;;;;;;5075079;28;20213;-86
2022/12/26 19:37:38;;;;;;;2.95;2.75;;;;;;;;;;5074646;28;20262;-82
2022/12/26 19:40:08;;;;;;;5.40;3.30;;;;;;;;;;5075007;28;20272;-87
2022/12/26 19:42:37;;;;;;;2.97;2.75;;;;;;;;;;5074474;28;20315;-86
2022/12/26 19:45:05;;;;;;;4.22;2.50;;;;;;;;;;5075048;28;20309;-85
2022/12/26 19:47:33;;;;;;;3.97;3.38;;;;;;;;;;5074418;28;20287;-86
2022/12/26 19:50:02;;;;;;;3.30;2.45;;;;;;;;;;5074879;28;20288;-86
2022/12/26 19:52:29;;;;;;;3.65;3.05;;;;;;;;;;5072698;28;20284;-84
2022/12/26 19:54:57;;;;;;;3.75;2.92;;;;;;;;;;5067179;28;20289;-86
2022/12/26 19:57:24;;;;;;;3.58;2.97;;;;;;;;;;5073678;28;20228;-85
2022/12/26 19:59:52;;;;;;;4.32;2.83;;;;;;;;;;5073944;28;20197;-85
2022/12/26 20:02:19;;;;;;;2.80;2.47;;;;;;;;;;5074933;28;20591;-86
2022/12/26 20:04:47;;;;;;;4.50;3.28;;;;;;;;;;5073159;28;20260;-86
2022/12/26 20:07:16;;;;;;;4.00;3.50;;;;;;;;;;5067642;28;20233;-87
2022/12/26 20:09:43;;;;;;;4.53;3.30;;;;;;;;;;5071846;28;20233;-85
2022/12/26 20:12:10;;;;;;;3.70;3.30;;;;;;;;;;5074326;28;20212;-84